Airfield :
LOGIN :

Register | Disclaimer

   EN    FR    IT 

 










Legend :    VFR   Marginal VFR   IFR   Intensive IFR   Very Intensive IFR
Visi :
Ceiling :
>= 8 km
>= 3000ft
5 to 8 km
1000 to 3000 ft
1500m to 5 km
500 to 1000 ft
800 to 1500m
200 to 500 ft
< 800m
< 200 ft
Symbols :   Thunderstorms  Fog  Heavy snow  Heavy precipitations  Wind > 20 kt
SIGMETs :     Misc.  Thunderstorms  Icing  Turbulence  Mountain Waves  Volcanic Ashes






- Airport Elevation : 247 ft
- IATA code : BLL


EKBI - Billund

CURRENT METAR :
  • 200150Z AUTO 17006KT 9999 SCT190/// 03/02 Q1012

EXPIRED METARs :
  • 200120Z AUTO 17005KT 9999 FEW017/// 02/02 Q1012
  • 200050Z AUTO 17004KT 9999 FEW019/// SCT230/// 02/01 Q1012
  • 192350Z AUTO 20005KT 9999 SCT026/// 03/02 Q1012
  • 192320Z AUTO 21006KT 9999 NCD 03/01 Q1012
  • 192250Z AUTO 23006KT 9999 NCD 03/02 Q1012

TAF TAF EKBI
Valid from the 20 at 00:00 until the 21 at 00:00 UTC


192300Z 2000/2024 23006KT 9999 SCT020
TEMPO 2001/2003 BKN012
BECMG 2003/2005 19012KT 2500 RADZ BR BKN003
TEMPO 2005/2013 19015G25KT 6000 -RADZ BKN012
TEMPO 2013/2020 19020G35KT 8000 -RADZ BKN015
BECMG 2020/2022 29018G28KT 9999 NSW SCT020



MET'MAP, your aeronautical weather chart ! - Copyright ORBIFLY December 2007 - Disclaimer

ORBIFLY MET'MAP TEAM :

Programming & Development : Alexandra Zaïnal
Concept & original design : Baudouin d'Aumeries
Assistance for programming : Marc-Olivier Méhu
Technical & hardware support : Manuel Goepfert

Contact : metmap@orbifly.com




SOURCES & CREDITS :

   NOAA